Flight Track Log - Related Links

Times and Time Zones

All times are in EDT time to prevent confusion due to time zone crossing. See the SKW5550 flight status page for this flight to view local times or setup timezone preferences in your user account.


Time Position Orientation Groundspeed Altitude Reporting Facility
EDT Latitude Longitude Course Direction KTS MPH feet Rate Location/Type
Tue 05:15:26 PM 39.8500 -104.7667 298° West 205 236 7,200  Level Denver TRACON
Tue 05:16:26 PM 39.8833 -104.8500 298° West 258 297 9,000 1,963 Climbing Denver TRACON
Tue 05:17:13 PM 39.8950 -104.9231 282° West 279 321 10,700 1,927 Climbing Denver Center
Tue 05:18:15 PM 39.9072 -105.0436 278° West 310 357 12,500 1,839 Climbing Denver Center
Tue 05:19:17 PM 39.9197 -105.1575 278° West 318 366 14,500 1,984 Climbing Denver Center
Tue 05:20:19 PM 39.9322 -105.2731 278° West 321 369 16,600 1,597 Climbing Denver Center
Tue 05:21:21 PM 39.9464 -105.4036 278° West 339 390 17,800 1,355 Climbing Denver Center
Tue 05:22:23 PM 39.9586 -105.5272 277° West 346 398 19,400 1,403 Climbing Denver Center
Tue 05:23:25 PM 39.9725 -105.6658 277° West 361 415 20,700 1,403 Climbing Denver Center
Tue 05:24:27 PM 39.9728 -105.7983 270° West 368 423 22,300 1,452 Climbing Denver Center
Tue 05:25:29 PM 39.9733 -105.9317 270° West 355 409 23,700 1,268 Climbing Denver Center
Tue 05:26:30 PM 39.9819 -106.0625 275° West 362 417 24,900 1,122 Climbing Denver Center
Tue 05:27:32 PM 39.9897 -106.1922 275° West 361 415 26,000 823 Climbing Denver Center
Tue 05:28:34 PM 39.9964 -106.3250 274° West 365 420 26,600 726 Climbing Denver Center
Tue 05:29:36 PM 40.0044 -106.4586 275° West 370 426 27,500 677 Climbing Denver Center
Tue 05:30:38 PM 40.0275 -106.6028 282° West 376 433 28,000 532 Climbing Denver Center
Tue 05:31:40 PM 40.0508 -106.7550 281° West 383 441 28,600 484 Climbing Denver Center
Tue 05:32:42 PM 40.0711 -106.8869 281° West 386 444 29,000 484 Climbing Denver Center
Tue 05:33:44 PM 40.0953 -107.0411 282° West 389 448 29,600 532 Climbing Denver Center
Tue 05:34:46 PM 40.1150 -107.1739 281° West 390 449 30,100 532 Climbing Denver Center
Tue 05:35:48 PM 40.1383 -107.3283 281° West 389 448 30,700 532 Climbing Denver Center
Tue 05:36:50 PM 40.1572 -107.4625 280° West 390 449 31,200 484 Climbing Denver Center
Tue 05:37:52 PM 40.1806 -107.6175 281° West 391 450 31,700 387 Climbing Denver Center
Tue 05:38:54 PM 40.2011 -107.7514 281° West 391 450 32,000 146 Climbing Denver Center
Tue 05:39:55 PM 40.2203 -107.8881 280° West 397 457 32,000  Level Denver Center
Tue 05:40:57 PM 40.2428 -108.0486 280° West 401 461 32,000  Level Denver Center
Tue 05:41:59 PM 40.2631 -108.1881 281° West 406 467 32,000  Level Denver Center
Tue 05:43:01 PM 40.2850 -108.3522 280° West 410 472 32,000  Level Denver Center
Tue 05:43:40 PM 40.2981 -108.4467 280° West 409 471 32,000  Level Salt Lake Center
Tue 05:44:42 PM 40.3178 -108.5917 280° West 420 483 32,000  Level Salt Lake Center
Tue 05:46:07 PM 40.3458 -108.8031 280° West 417 480 32,000  Level Denver Center
Tue 05:47:09 PM 40.3681 -108.9681 280° West 415 478 32,000  Level Denver Center
Tue 05:48:11 PM 40.3867 -109.1042 280° West 402 463 32,000  Level Denver Center
Tue 05:48:49 PM 40.3981 -109.1950 279° West 398 458 32,000  Level Salt Lake Center
Tue 05:51:17 PM 40.4444 -109.5517 280° West 388 447 32,000  Level Denver Center
Tue 05:51:55 PM 40.4556 -109.6428 279° West 391 450 32,000  Level Salt Lake Center
Tue 05:52:57 PM 40.4722 -109.7783 279° West 394 453 32,000  Level Salt Lake Center
Tue 05:54:00 PM 40.4907 -109.9253 279° West  Level FlightAware Approximate
Tue 05:55:01 PM 40.5078 -110.0736 279° West 396 456 32,000  Level Salt Lake Center
Tue 05:57:04 PM 40.5367 -110.3733 277° West 399 459 32,000  Level Salt Lake Center
Tue 05:59:08 PM 40.5658 -110.6833 277° West 402 463 32,000  Level Salt Lake Center
Tue 06:00:10 PM 40.5794 -110.8289 277° West 402 463 32,000  Level Salt Lake Center
Tue 06:01:12 PM 40.5928 -110.9764 277° West 406 467 32,000  Level Salt Lake Center
Tue 06:02:14 PM 40.6058 -111.1244 277° West 407 468 32,000  Level Salt Lake Center
Tue 06:04:00 PM 40.6249 -111.3744 276° West  Level FlightAware Approximate
Tue 06:05:19 PM 40.6439 -111.5703 276° West 410 472 32,000  Level Salt Lake Center
Tue 06:07:23 PM 40.6722 -111.9011 277° West 409 471 32,000  Level Salt Lake Center
Tue 06:09:00 PM 40.6834 -112.1304 270° West  Level FlightAware Approximate
Tue 06:10:29 PM 40.7075 -112.3489 270° West 407 468 32,000  Level Salt Lake Center
Tue 06:12:00 PM 40.7192 -112.5643 274° West  Level FlightAware Approximate
Tue 06:13:35 PM 40.7244 -112.7928 274° West 404 465 32,000  Level Salt Lake Center
Tue 06:15:00 PM 40.7235 -112.9945 270° West  Level FlightAware Approximate
Tue 06:16:00 PM 40.7183 -113.1234 270° West  Level FlightAware Approximate
Tue 06:16:40 PM 40.7264 -113.2658 270° West 406 467 32,000  Level Salt Lake Center
Tue 06:18:00 PM 40.7228 -113.4557 269° West  Level FlightAware Approximate
Tue 06:19:46 PM 40.7269 -113.7097 270° West 408 470 32,000  Level Salt Lake Center
Tue 06:20:48 PM 40.7247 -113.8608 269° West 413 475 32,000  Level Salt Lake Center
Tue 06:22:00 PM 40.7076 -114.0271 262° West  Level FlightAware Approximate
Tue 06:22:52 PM 40.7125 -114.1953 262° West 416 479 32,000  Level Salt Lake Center
Tue 06:23:54 PM 40.7067 -114.3447 267° West 412 474 32,000  Level Salt Lake Center
Tue 06:24:56 PM 40.7019 -114.4964 268° West 414 476 32,000  Level Salt Lake Center
Tue 06:25:00 PM 40.7000 -114.4516 270° West  Level FlightAware Approximate
Tue 06:25:58 PM 40.6967 -114.6458 267° West 412 474 32,000  Level Salt Lake Center
Tue 06:26:59 PM 40.6900 -114.8011 267° West 409 471 32,000  Level Salt Lake Center
Tue 06:28:01 PM 40.6811 -114.9683 266° West 408 470 32,000  Level Salt Lake Center
Tue 06:29:03 PM 40.6736 -115.1094 266° West 407 468 32,000  Level Salt Lake Center
Tue 06:30:05 PM 40.6614 -115.2731 264° West 402 463 32,000  Level Salt Lake Center
Tue 06:31:07 PM 40.6550 -115.4136 267° West 401 461 32,000  Level Salt Lake Center
Tue 06:32:09 PM 40.6472 -115.5778 266° West 402 463 32,000  Level Salt Lake Center
Tue 06:33:10 PM 40.6417 -115.7181 267° West 402 463 32,000  Level Salt Lake Center
Tue 06:34:12 PM 40.6339 -115.8578 266° West 401 461 32,000  Level Salt Lake Center
Tue 06:35:14 PM 40.6247 -116.0211 266° West 400 460 32,000  Level Salt Lake Center
Tue 06:36:16 PM 40.6167 -116.1583 266° West 397 457 32,000  Level Salt Lake Center
Tue 06:37:18 PM 40.6072 -116.3200 266° West 397 457 32,000  Level Salt Lake Center
Tue 06:38:20 PM 40.5986 -116.4569 265° West 395 455 32,000  Level Salt Lake Center
Tue 06:39:21 PM 40.5889 -116.6156 265° West 392 451 32,000  Level Salt Lake Center
Tue 06:40:23 PM 40.5806 -116.7494 265° West 388 447 32,000  Level Salt Lake Center
Tue 06:41:25 PM 40.5700 -116.9056 265° West 389 448 32,000  Level Salt Lake Center
Tue 06:42:27 PM 40.5303 -117.0369 248° West 413 475 32,000  Level Salt Lake Center
Tue 06:43:28 PM 40.4739 -117.1886 244° Southwest 417 480 32,000  Level Salt Lake Center
Tue 06:44:30 PM 40.4256 -117.3175 244° Southwest 415 478 32,000  Level Salt Lake Center
Tue 06:45:32 PM 40.3689 -117.4681 244° Southwest 413 475 32,000  Level Salt Lake Center
Tue 06:46:33 PM 40.3336 -117.5992 251° West 403 464 32,000  Level Salt Lake Center
Tue 06:47:35 PM 40.3039 -117.7531 256° West 393 452 32,000  Level Salt Lake Center
Tue 06:48:37 PM 40.2750 -117.8831 254° West 390 449 32,000  Level Salt Lake Center
Tue 06:49:11 PM 40.2589 -117.9686 256° West 382 440 32,000  Level Oakland Center
Tue 06:50:13 PM 40.2311 -118.0983 254° West 380 437 32,000  Level Oakland Center
Tue 06:51:14 PM 40.2028 -118.2300 254° West 375 432 32,000  Level Oakland Center
Tue 06:52:15 PM 40.1742 -118.3586 254° West 372 428 32,000  Level Oakland Center
Tue 06:53:16 PM 40.1456 -118.4881 254° West 372 428 32,000  Level Oakland Center
Tue 06:54:18 PM 40.1114 -118.6158 251° West 376 433 32,000  Level Oakland Center
Tue 06:55:19 PM 40.0581 -118.7411 241° Southwest 395 455 32,000  Level Oakland Center
Tue 06:56:20 PM 39.9936 -118.8906 241° Southwest 397 457 32,000  Level Oakland Center
Tue 06:57:21 PM 39.9406 -119.0164 241° Southwest 401 461 32,000  Level Oakland Center
Tue 06:58:23 PM 39.8864 -119.1406 240° Southwest 398 458 32,000  Level Oakland Center
Tue 06:59:24 PM 39.8325 -119.2664 241° Southwest 397 457 32,000  Level Oakland Center
Tue 07:00:25 PM 39.7786 -119.3911 241° Southwest 398 458 32,000 -344 Level Oakland Center
Tue 07:01:26 PM 39.7278 -119.5133 242° Southwest 389 448 31,300 -976 Descending Oakland Center
Tue 07:02:28 PM 39.6694 -119.6461 240° Southwest 422 486 30,000 -1,415 Descending Oakland Center
Tue 07:03:29 PM 39.6139 -119.7728 240° Southwest 409 471 28,400 -1,672 Descending Oakland Center
Tue 07:04:30 PM 39.5603 -119.8953 240° Southwest 396 456 26,600 -2,016 Descending Oakland Center
Tue 07:05:31 PM 39.4933 -120.0475 240° Southwest 407 468 24,300 -1,951 Descending Oakland Center
Tue 07:06:33 PM 39.4464 -120.1525 240° Southwest 400 460 22,600 -1,902 Descending Oakland Center
Tue 07:07:34 PM 39.3808 -120.3028 241° Southwest 401 461 20,400 -2,016 Descending Oakland Center
Tue 07:08:35 PM 39.3269 -120.4211 240° Southwest 385 443 18,500 -1,869 Descending Oakland Center
Tue 07:09:36 PM 39.2753 -120.5400 241° Southwest 381 438 16,600 -1,220 Descending Oakland Center
Tue 07:10:38 PM 39.2231 -120.6547 240° Southwest 372 428 16,000 -293 Descending Oakland Center
Tue 07:11:39 PM 39.1719 -120.7697 240° Southwest 371 427 16,000  Level Oakland Center
Tue 07:12:40 PM 39.1203 -120.8828 240° Southwest 368 423 16,000 -49 Level Oakland Center
Tue 07:13:42 PM 39.0689 -120.9978 240° Southwest 371 427 15,900 -878 Descending Oakland Center
Tue 07:14:43 PM 39.0186 -121.1094 240° Southwest 367 422 14,200 -1,623 Descending Oakland Center
Tue 07:15:44 PM 38.9733 -121.2094 240° Southwest 337 388 12,600 -1,770 Descending Oakland Center
Tue 07:17:02 PM 38.9167 -121.3500 243° Southwest 314 361 10,100 -2,000 Descending Northern Cal TRACON
Tue 07:18:02 PM 38.9000 -121.4667 260° West 295 339 8,000 -1,750 Descending Northern Cal TRACON
Tue 07:19:02 PM 38.8833 -121.5667 258° West 286 329 6,600 -1,300 Descending Northern Cal TRACON
Tue 07:20:02 PM 38.8500 -121.6500 243° Southwest 252 290 5,400 -881 Descending Northern Cal TRACON
Tue 07:20:51 PM 38.8219 -121.6900 228° Southwest 253 291 5,000 -436 Descending Oakland Center
Tue 07:21:52 PM 38.7536 -121.6831 175° South 243 280 4,600 -732 Descending Oakland Center
Tue 07:22:54 PM 38.6839 -121.6775 176° South 250 288 3,500 -780 Descending Oakland Center
Tue 07:23:55 PM 38.6089 -121.6644 172° South 236 272 3,000 -703 Descending Oakland Center
Tue 07:25:02 PM 38.6000 -121.6000 100° East 180 207 2,000 -850 Descending Northern Cal TRACON
Tue 07:26:02 PM 38.6333 -121.5833 21° North 137 158 1,200 -850 Descending Northern Cal TRACON
Tue 07:27:02 PM 38.6667 -121.5833 360° North 126 145 300 -900 Descending Northern Cal TRACON

Login

Don't have an account? Register now (free) for customized features, flight alerts, and more!